createdAt,value
2017-01-06T00:00:12.779Z,-6.16
2017-01-06T00:01:18.945Z,-6.11
2017-01-06T00:02:25.111Z,-6.15
2017-01-06T00:03:29.367Z,-6.21
2017-01-06T00:04:34.555Z,-6.13
2017-01-06T00:05:39.746Z,-6.13
2017-01-06T00:06:43.997Z,-6.16
2017-01-06T00:07:49.161Z,-6.13
2017-01-06T00:08:55.320Z,-6.13
2017-01-06T00:10:01.474Z,-6.11
2017-01-06T00:11:07.641Z,-6.06
2017-01-06T00:12:13.803Z,-6.08
2017-01-06T00:13:18.995Z,-6.15
2017-01-06T00:14:24.259Z,-6.02
2017-01-06T00:15:30.418Z,-6.09
2017-01-06T00:16:35.617Z,-6.11
2017-01-06T00:17:41.473Z,-6.15
2017-01-06T00:18:47.645Z,-6.08
2017-01-06T00:19:52.827Z,-6.13
2017-01-06T00:20:56.272Z,-6.24
2017-01-06T00:22:01.476Z,-6.12
2017-01-06T00:23:05.072Z,-6.15
2017-01-06T00:24:10.258Z,-6.11
2017-01-06T00:25:15.442Z,-6.19
2017-01-06T00:26:20.634Z,-6.19
2017-01-06T00:27:24.868Z,-6.15
2017-01-06T00:28:30.077Z,-6.21
2017-01-06T00:29:35.266Z,-6.27
2017-01-06T00:30:38.493Z,-6.19
2017-01-06T00:31:43.676Z,-6.18
2017-01-06T00:32:48.994Z,-6.16
2017-01-06T00:33:53.162Z,-6.13
2017-01-06T00:34:59.454Z,-6.05
2017-01-06T00:36:05.609Z,-6.23
2017-01-06T00:37:10.800Z,-6.18
2017-01-06T00:38:16.102Z,-6.21
2017-01-06T00:39:21.264Z,-6.21
2017-01-06T00:40:24.524Z,-6.3
2017-01-06T00:41:29.714Z,-6.18
2017-01-06T00:42:33.951Z,-6.24
2017-01-06T00:43:39.133Z,-6.3
2017-01-06T00:44:44.328Z,-6.29
2017-01-06T00:45:49.494Z,-6.24
2017-01-06T00:46:52.757Z,-6.21
2017-01-06T00:47:57.949Z,-6.21
2017-01-06T00:49:04.109Z,-6.21
2017-01-06T00:50:09.272Z,-6.26
2017-01-06T00:51:14.462Z,-6.23
2017-01-06T00:52:19.666Z,-6.21
2017-01-06T00:53:25.885Z,-6.29
2017-01-06T00:54:30.108Z,-6.44
2017-01-06T00:55:35.328Z,-6.45
2017-01-06T00:56:40.498Z,-6.31
2017-01-06T00:57:46.614Z,-6.39
2017-01-06T00:58:51.811Z,-6.31
2017-01-06T00:59:57.088Z,-6.4
2017-01-06T01:01:01.312Z,-6.4
2017-01-06T01:02:06.510Z,-6.29
2017-01-06T01:03:12.667Z,-6.27
2017-01-06T01:04:18.831Z,-6.39
2017-01-06T01:05:24.367Z,-6.31
2017-01-06T01:06:30.526Z,-6.34
2017-01-06T01:07:34.728Z,-6.4
2017-01-06T01:08:40.362Z,-6.45
2017-01-06T01:09:43.619Z,-6.47
2017-01-06T01:10:49.813Z,-6.45
2017-01-06T01:11:55.943Z,-6.39
2017-01-06T01:13:01.139Z,-6.42
2017-01-06T01:14:06.293Z,-6.44
2017-01-06T01:15:11.479Z,-6.5
2017-01-06T01:16:17.639Z,-6.5
2017-01-06T01:17:23.806Z,-6.47
2017-01-06T01:18:29.033Z,-6.48
2017-01-06T01:19:34.187Z,-6.5
2017-01-06T01:20:38.376Z,-6.48
2017-01-06T01:21:42.570Z,-6.45
2017-01-06T01:22:47.733Z,-6.48
2017-01-06T01:23:52.024Z,-6.55
2017-01-06T01:24:57.920Z,-6.51
2017-01-06T01:26:01.162Z,-6.64
2017-01-06T01:27:07.362Z,-6.63
2017-01-06T01:28:12.560Z,-6.55
2017-01-06T01:29:17.679Z,-6.52
2017-01-06T01:30:22.901Z,-6.54
2017-01-06T01:31:28.071Z,-6.47
2017-01-06T01:32:33.270Z,-6.42
2017-01-06T01:33:39.504Z,-6.51
2017-01-06T01:34:43.766Z,-6.5
2017-01-06T01:35:48.917Z,-6.51
2017-01-06T01:36:54.134Z,-6.47
2017-01-06T01:38:00.260Z,-6.59
2017-01-06T01:39:06.416Z,-6.64
2017-01-06T01:40:12.596Z,-6.61
2017-01-06T01:41:18.739Z,-6.63
2017-01-06T01:42:23.163Z,-6.64
2017-01-06T01:43:27.480Z,-6.61
2017-01-06T01:44:33.707Z,-6.59
2017-01-06T01:45:38.869Z,-6.54
2017-01-06T01:46:45.019Z,-6.69
2017-01-06T01:47:51.184Z,-6.52
2017-01-06T01:48:56.344Z,-6.7
2017-01-06T01:50:01.532Z,-6.71
2017-01-06T01:51:07.685Z,-6.55
2017-01-06T01:52:13.848Z,-6.55
2017-01-06T01:53:20.010Z,-6.61
2017-01-06T01:54:23.290Z,-6.54
2017-01-06T01:55:28.482Z,-6.63
2017-01-06T01:56:33.670Z,-6.71
2017-01-06T01:57:39.825Z,-6.55
2017-01-06T01:58:44.014Z,-6.73
2017-01-06T01:59:50.205Z,-6.63
2017-01-06T02:00:56.341Z,-6.71
2017-01-06T02:02:01.531Z,-6.61
2017-01-06T02:03:07.691Z,-6.7
2017-01-06T02:04:12.880Z,-6.7
2017-01-06T02:05:19.124Z,-6.73
2017-01-06T02:06:25.287Z,-6.71
2017-01-06T02:07:28.267Z,-6.79
2017-01-06T02:08:34.500Z,-6.82
2017-01-06T02:09:39.656Z,-6.79
2017-01-06T02:10:44.849Z,-6.84
2017-01-06T02:11:49.068Z,-6.76
2017-01-06T02:12:54.260Z,-6.7
2017-01-06T02:13:58.482Z,-6.73
2017-01-06T02:15:03.671Z,-6.76
2017-01-06T02:16:08.873Z,-6.74
2017-01-06T02:17:14.081Z,-6.82
2017-01-06T02:18:18.273Z,-6.77
2017-01-06T02:19:22.462Z,-6.79
2017-01-06T02:20:28.717Z,-6.74
2017-01-06T02:21:33.910Z,-6.82
2017-01-06T02:22:39.138Z,-6.88
2017-01-06T02:23:45.297Z,-6.77
2017-01-06T02:24:50.456Z,-6.87
2017-01-06T02:25:53.712Z,-6.81
2017-01-06T02:26:58.876Z,-6.9
2017-01-06T02:28:03.091Z,-6.79
2017-01-06T02:29:09.278Z,-6.87
2017-01-06T02:30:15.409Z,-6.88
2017-01-06T02:31:21.578Z,-6.94
2017-01-06T02:32:26.739Z,-6.92
2017-01-06T02:33:31.899Z,-6.97
2017-01-06T02:34:37.110Z,-6.97
2017-01-06T02:35:41.310Z,-7.03
2017-01-06T02:36:45.534Z,-6.99
2017-01-06T02:37:51.693Z,-6.99
2017-01-06T02:38:56.855Z,-6.97
2017-01-06T02:40:02.053Z,-7.09
2017-01-06T02:41:08.210Z,-7.02
2017-01-06T02:42:14.370Z,-7.06
2017-01-06T02:43:20.529Z,-6.91
2017-01-06T02:44:25.699Z,-7
2017-01-06T02:45:31.863Z,-7.03
2017-01-06T02:46:38.060Z,-6.97
2017-01-06T02:47:43.249Z,-6.99
2017-01-06T02:48:48.438Z,-7.05
2017-01-06T02:49:54.604Z,-7.09
2017-01-06T02:50:59.841Z,-7.12
2017-01-06T02:52:05.955Z,-7.12
2017-01-06T02:53:10.152Z,-6.99
2017-01-06T02:54:15.345Z,-7.09
2017-01-06T02:55:19.541Z,-7.06
2017-01-06T02:56:24.723Z,-7.06
2017-01-06T02:57:29.912Z,-7.08
2017-01-06T02:58:33.142Z,-7.09
2017-01-06T02:59:38.574Z,-7.09
2017-01-06T03:00:43.739Z,-7.16
2017-01-06T03:01:49.905Z,-7.15
2017-01-06T03:02:55.101Z,-7.2
2017-01-06T03:04:00.287Z,-7.2
2017-01-06T03:05:06.452Z,-7.24
2017-01-06T03:06:12.654Z,-7.21
2017-01-06T03:07:18.851Z,-7.3
2017-01-06T03:08:24.999Z,-7.29
2017-01-06T03:09:31.171Z,-7.21
2017-01-06T03:10:36.334Z,-7.29
2017-01-06T03:11:40.549Z,-7.26
2017-01-06T03:12:44.767Z,-7.19
2017-01-06T03:13:50.922Z,-7.19
2017-01-06T03:14:56.114Z,-7.23
2017-01-06T03:16:01.302Z,-7.24
2017-01-06T03:17:07.522Z,-7.24
2017-01-06T03:18:11.696Z,-7.29
2017-01-06T03:19:17.920Z,-7.23
2017-01-06T03:20:23.112Z,-7.27
2017-01-06T03:21:28.311Z,-7.29
2017-01-06T03:22:31.583Z,-7.33
2017-01-06T03:23:37.745Z,-7.34
2017-01-06T03:24:42.931Z,-7.26
2017-01-06T03:25:49.088Z,-7.3
2017-01-06T03:26:54.277Z,-7.29
2017-01-06T03:27:59.517Z,-7.29
2017-01-06T03:29:01.809Z,-7.29
2017-01-06T03:30:06.035Z,-7.29
2017-01-06T03:31:12.202Z,-7.34
2017-01-06T03:32:17.468Z,-7.3
2017-01-06T03:33:22.688Z,-7.29
2017-01-06T03:34:28.817Z,-7.41
2017-01-06T03:35:32.041Z,-7.24
2017-01-06T03:36:37.313Z,-7.41
2017-01-06T03:37:43.468Z,-7.33
2017-01-06T03:38:49.624Z,-7.38
2017-01-06T03:39:54.812Z,-7.29
2017-01-06T03:41:00.977Z,-7.27
2017-01-06T03:42:06.163Z,-7.3
2017-01-06T03:43:12.354Z,-7.26
2017-01-06T03:44:17.511Z,-7.41
2017-01-06T03:45:21.708Z,-7.45
2017-01-06T03:46:27.868Z,-7.41
2017-01-06T03:47:33.028Z,-7.39
2017-01-06T03:48:39.238Z,-7.38
2017-01-06T03:49:45.351Z,-7.42
2017-01-06T03:50:50.548Z,-7.42
2017-01-06T03:51:54.733Z,-7.41
2017-01-06T03:53:00.905Z,-7.41
2017-01-06T03:54:07.117Z,-7.41
2017-01-06T03:55:11.350Z,-7.47
2017-01-06T03:56:17.515Z,-7.2
2017-01-06T03:57:23.704Z,-7.33
2017-01-06T03:58:29.857Z,-7.38
2017-01-06T03:59:34.118Z,-7.3
2017-01-06T04:00:39.314Z,-7.33
2017-01-06T04:01:44.544Z,-7.37
2017-01-06T04:02:49.690Z,-7.39
2017-01-06T04:03:55.860Z,-7.33
2017-01-06T04:05:02.010Z,-7.34
2017-01-06T04:06:08.226Z,-7.37
2017-01-06T04:07:12.437Z,-7.37
2017-01-06T04:08:17.626Z,-7.34
2017-01-06T04:09:23.787Z,-7.42
2017-01-06T04:10:27.020Z,-7.39
2017-01-06T04:11:33.189Z,-7.45
2017-01-06T04:12:39.403Z,-7.45
2017-01-06T04:13:44.592Z,-7.41
2017-01-06T04:14:49.810Z,-7.41
2017-01-06T04:15:54.989Z,-7.41
2017-01-06T04:17:01.120Z,-7.45
2017-01-06T04:18:06.307Z,-7.39
2017-01-06T04:19:10.528Z,-7.39
2017-01-06T04:20:15.716Z,-7.33
2017-01-06T04:21:18.955Z,-7.44
2017-01-06T04:22:23.141Z,-7.42
2017-01-06T04:23:28.391Z,-7.33
2017-01-06T04:24:34.544Z,-7.41
2017-01-06T04:25:39.739Z,-7.42
2017-01-06T04:26:45.912Z,-7.37
2017-01-06T04:27:51.107Z,-7.44
2017-01-06T04:28:55.326Z,-7.45
2017-01-06T04:30:00.524Z,-7.44
2017-01-06T04:31:06.734Z,-7.47
2017-01-06T04:32:11.939Z,-7.42
2017-01-06T04:33:17.128Z,-7.41
2017-01-06T04:34:22.353Z,-7.52
2017-01-06T04:35:28.517Z,-7.41
2017-01-06T04:36:34.681Z,-7.52
2017-01-06T04:37:40.824Z,-7.41
2017-01-06T04:38:45.019Z,-7.51
2017-01-06T04:39:51.171Z,-7.48
2017-01-06T04:40:57.323Z,-7.45
2017-01-06T04:42:02.520Z,-7.59
2017-01-06T04:43:07.706Z,-7.54
2017-01-06T04:44:11.085Z,-7.52
2017-01-06T04:45:17.280Z,-7.62
2017-01-06T04:46:22.447Z,-7.59
2017-01-06T04:47:27.638Z,-7.65
2017-01-06T04:48:31.832Z,-7.6
2017-01-06T04:49:37.983Z,-7.62
2017-01-06T04:50:44.141Z,-7.6
2017-01-06T04:51:49.328Z,-7.69
2017-01-06T04:52:53.605Z,-7.58
2017-01-06T04:53:57.843Z,-7.59
2017-01-06T04:55:02.115Z,-7.59
2017-01-06T04:56:06.342Z,-7.7
2017-01-06T04:57:11.591Z,-7.6
2017-01-06T04:58:15.818Z,-7.58
2017-01-06T04:59:22.083Z,-7.62
2017-01-06T05:00:28.240Z,-7.58
2017-01-06T05:01:33.442Z,-7.56
2017-01-06T05:02:39.594Z,-7.58
2017-01-06T05:03:45.761Z,-7.56
2017-01-06T05:04:49.963Z,-7.54
2017-01-06T05:05:55.151Z,-7.58
2017-01-06T05:07:00.337Z,-7.58
2017-01-06T05:08:04.564Z,-7.62
2017-01-06T05:09:08.777Z,-7.56
2017-01-06T05:10:13.969Z,-7.62
2017-01-06T05:11:19.159Z,-7.66
2017-01-06T05:12:25.319Z,-7.59
2017-01-06T05:13:30.501Z,-7.7
2017-01-06T05:14:34.723Z,-7.62
2017-01-06T05:15:40.912Z,-7.7
2017-01-06T05:16:46.072Z,-7.69
2017-01-06T05:17:50.303Z,-7.7
2017-01-06T05:18:53.844Z,-7.59
2017-01-06T05:19:58.088Z,-7.69
2017-01-06T05:21:04.254Z,-7.6
2017-01-06T05:22:10.427Z,-7.63
2017-01-06T05:23:15.592Z,-7.6
2017-01-06T05:25:26.944Z,-7.59
2017-01-06T05:26:32.136Z,-7.59
2017-01-06T05:27:38.296Z,-7.54
2017-01-06T05:28:43.472Z,-7.59
2017-01-06T05:29:47.679Z,-7.63
2017-01-06T05:30:53.839Z,-7.6
2017-01-06T05:31:59.029Z,-7.7
2017-01-06T05:33:04.218Z,-7.58
2017-01-06T05:34:10.503Z,-7.68
2017-01-06T05:35:16.626Z,-7.68
2017-01-06T05:36:22.817Z,-7.63
2017-01-06T05:37:28.046Z,-7.72
2017-01-06T05:38:34.169Z,-7.81
2017-01-06T05:39:38.388Z,-7.77
2017-01-06T05:40:43.586Z,-7.79
2017-01-06T05:41:47.811Z,-7.81
2017-01-06T05:42:53.959Z,-7.81
2017-01-06T05:43:58.185Z,-7.81
2017-01-06T05:45:03.393Z,-7.8
2017-01-06T05:46:07.607Z,-7.8
2017-01-06T05:47:12.761Z,-7.68
2017-01-06T05:48:18.966Z,-7.79
2017-01-06T05:49:24.091Z,-7.68
2017-01-06T05:50:26.347Z,-7.65
2017-01-06T05:51:31.536Z,-7.72
2017-01-06T05:52:36.732Z,-7.8
2017-01-06T05:53:42.906Z,-7.69
2017-01-06T05:54:49.108Z,-7.77
2017-01-06T05:55:55.224Z,-7.7
2017-01-06T05:57:00.409Z,-7.83
2017-01-06T05:58:06.569Z,-7.7
2017-01-06T05:59:11.767Z,-7.8
2017-01-06T06:00:17.109Z,-7.76
2017-01-06T06:01:21.347Z,-7.8
2017-01-06T06:02:26.502Z,-7.74
2017-01-06T06:03:32.663Z,-7.76
2017-01-06T06:04:38.815Z,-7.79
2017-01-06T06:05:42.064Z,-7.7
2017-01-06T06:06:46.273Z,-7.72
2017-01-06T06:07:52.437Z,-7.66
2017-01-06T06:08:56.634Z,-7.76
2017-01-06T06:10:01.824Z,-7.72
2017-01-06T06:11:06.039Z,-7.66
2017-01-06T06:12:11.211Z,-7.81
2017-01-06T06:13:16.402Z,-7.74
2017-01-06T06:14:21.595Z,-7.77
2017-01-06T06:15:26.785Z,-7.72
2017-01-06T06:16:31.971Z,-7.79
2017-01-06T06:17:36.192Z,-7.83
2017-01-06T06:18:41.363Z,-7.68
2017-01-06T06:19:47.516Z,-7.76
2017-01-06T06:20:51.844Z,-7.58
2017-01-06T06:21:56.066Z,-7.68
2017-01-06T06:23:02.264Z,-7.59
2017-01-06T06:24:08.415Z,-7.48
2017-01-06T06:25:14.540Z,-7.6
2017-01-06T06:26:20.707Z,-7.48
2017-01-06T06:27:25.903Z,-7.42
2017-01-06T06:28:30.096Z,-7.47
2017-01-06T06:29:35.282Z,-7.44
2017-01-06T06:30:41.570Z,-7.37
2017-01-06T06:31:47.432Z,-7.37
2017-01-06T06:32:53.598Z,-7.26
2017-01-06T06:33:58.752Z,-7.29
2017-01-06T06:35:03.915Z,-7.26
2017-01-06T06:36:10.069Z,-7.23
2017-01-06T06:37:14.299Z,-7.24
2017-01-06T06:38:19.486Z,-7.16
2017-01-06T06:39:25.646Z,-7.08
2017-01-06T06:40:31.879Z,-7.1
2017-01-06T06:41:37.099Z,-7.12
2017-01-06T06:42:42.293Z,-6.94
2017-01-06T06:43:48.561Z,-7
2017-01-06T06:44:53.795Z,-6.92
2017-01-06T06:45:58.014Z,-7.02
2017-01-06T06:47:03.291Z,-7.13
2017-01-06T06:48:07.512Z,-7
2017-01-06T06:49:12.710Z,-6.9
2017-01-06T06:50:18.876Z,-7
2017-01-06T06:51:25.039Z,-6.97
2017-01-06T06:52:31.192Z,-6.92
2017-01-06T06:53:37.345Z,-6.92
2017-01-06T06:54:43.547Z,-6.91
2017-01-06T06:55:49.706Z,-7
2017-01-06T06:56:54.897Z,-7.15
2017-01-06T06:57:59.091Z,-6.91
2017-01-06T06:59:05.245Z,-6.91
2017-01-06T07:00:10.432Z,-6.99
2017-01-06T07:01:16.588Z,-7.05
2017-01-06T07:02:20.821Z,-7.06
2017-01-06T07:03:26.056Z,-6.87
2017-01-06T07:04:32.178Z,-6.91
2017-01-06T07:05:37.363Z,-6.77
2017-01-06T07:06:42.556Z,-6.77
2017-01-06T07:07:48.820Z,-6.84
2017-01-06T07:08:53.979Z,-6.76
2017-01-06T07:10:00.143Z,-6.77
2017-01-06T07:11:06.295Z,-6.79
2017-01-06T07:12:11.491Z,-6.76
2017-01-06T07:13:17.657Z,-6.81
2017-01-06T07:14:20.992Z,-6.74
2017-01-06T07:15:27.140Z,-6.69
2017-01-06T07:16:31.438Z,-6.76
2017-01-06T07:17:37.590Z,-6.7
2017-01-06T07:18:43.750Z,-6.64
2017-01-06T07:19:47.938Z,-6.61
2017-01-06T07:20:53.179Z,-6.63
2017-01-06T07:21:58.573Z,-6.7
2017-01-06T07:23:03.781Z,-6.73
2017-01-06T07:24:07.975Z,-6.69
2017-01-06T07:25:13.173Z,-6.64
2017-01-06T07:26:19.348Z,-6.66
2017-01-06T07:27:22.602Z,-6.76
2017-01-06T07:28:25.827Z,-6.74
2017-01-06T07:29:31.995Z,-6.84
2017-01-06T07:30:38.165Z,-6.88
2017-01-06T07:31:43.384Z,-6.91
2017-01-06T07:32:49.514Z,-6.9
2017-01-06T07:33:54.694Z,-6.9
2017-01-06T07:34:59.862Z,-6.81
2017-01-06T07:36:05.059Z,-6.82
2017-01-06T07:37:09.297Z,-6.77
2017-01-06T07:38:13.500Z,-6.81
2017-01-06T07:39:17.725Z,-6.81
2017-01-06T07:40:22.963Z,-6.94
2017-01-06T07:41:27.149Z,-7
2017-01-06T07:42:32.305Z,-6.92
2017-01-06T07:43:36.530Z,-7.02
2017-01-06T07:44:41.720Z,-7.09
2017-01-06T07:45:47.948Z,-7.08
2017-01-06T07:46:53.130Z,-7.05
2017-01-06T07:47:59.306Z,-6.9
2017-01-06T07:49:05.434Z,-6.91
2017-01-06T07:50:09.625Z,-6.85
2017-01-06T07:51:14.810Z,-6.79
2017-01-06T07:52:20.979Z,-6.94
2017-01-06T07:53:26.169Z,-6.81
2017-01-06T07:54:31.422Z,-6.84
2017-01-06T07:55:36.613Z,-6.87
2017-01-06T07:56:42.791Z,-6.85
2017-01-06T07:57:47.948Z,-6.76
2017-01-06T07:58:54.097Z,-6.81
2017-01-06T08:00:00.259Z,-6.71
2017-01-06T08:01:05.440Z,-6.69
2017-01-06T08:02:11.602Z,-6.59
2017-01-06T08:03:16.786Z,-6.61
2017-01-06T08:04:21.015Z,-6.42
2017-01-06T08:05:26.226Z,-6.45
2017-01-06T08:06:32.387Z,-6.51
2017-01-06T08:07:37.592Z,-6.44
2017-01-06T08:08:43.774Z,-6.42
2017-01-06T08:09:49.939Z,-6.4
2017-01-06T08:12:01.272Z,-6.09
2017-01-06T08:13:07.435Z,-5.87
2017-01-06T08:14:12.634Z,-5.4
2017-01-06T08:15:16.823Z,-4.95
2017-01-06T08:16:22.996Z,-4.48
2017-01-06T08:17:29.154Z,-4.01
2017-01-06T08:18:35.327Z,-3.68
2017-01-06T08:19:40.530Z,-3.26
2017-01-06T08:20:46.702Z,-2.93
2017-01-06T08:21:52.858Z,-2.63
2017-01-06T08:22:56.101Z,-2.47
2017-01-06T08:24:00.292Z,-2.33
2017-01-06T08:25:03.528Z,-2.26
2017-01-06T08:26:08.725Z,-1.93
2017-01-06T08:27:13.917Z,-1.81
2017-01-06T08:28:18.114Z,-1.51
2017-01-06T08:29:23.307Z,-1.09
2017-01-06T08:30:27.535Z,-1.07
2017-01-06T08:31:30.795Z,-1
2017-01-06T08:32:37.010Z,-0.87
2017-01-06T08:33:42.206Z,-0.59
2017-01-06T08:34:47.498Z,-0.42
2017-01-06T08:35:52.658Z,-0.18
2017-01-06T08:36:57.840Z,0
2017-01-06T08:38:02.060Z,-0.09
2017-01-06T08:39:08.226Z,0.13
2017-01-06T08:40:13.422Z,0.23
2017-01-06T08:41:19.713Z,0.18
2017-01-06T08:42:25.009Z,0.21
2017-01-06T08:43:31.169Z,-0.16
2017-01-06T08:44:36.371Z,-0.68
2017-01-06T08:45:39.604Z,-0.87
2017-01-06T08:46:44.780Z,-1.24
2017-01-06T08:47:50.995Z,-1.56
2017-01-06T08:48:55.324Z,-1.95
2017-01-06T08:50:01.470Z,-2.33
2017-01-06T08:51:06.759Z,-2.64
2017-01-06T08:52:11.957Z,-2.79
2017-01-06T08:53:17.120Z,-2.97
2017-01-06T08:54:22.370Z,-3.1
2017-01-06T08:55:28.527Z,-3.13
2017-01-06T08:56:34.694Z,-3.33
2017-01-06T08:57:39.894Z,-3.43
2017-01-06T08:58:45.095Z,-3.47
2017-01-06T08:59:50.324Z,-3.49
2017-01-06T09:00:56.566Z,-3.47
2017-01-06T09:02:01.762Z,-3.35
2017-01-06T09:03:08.001Z,-2.97
2017-01-06T09:04:14.164Z,-2.42
2017-01-06T09:05:19.357Z,-1.98
2017-01-06T09:06:23.644Z,-1.56
2017-01-06T09:07:28.844Z,-1.17
2017-01-06T09:08:35.010Z,-1
2017-01-06T09:09:41.190Z,-0.8
2017-01-06T09:10:47.350Z,-0.39
2017-01-06T09:11:51.556Z,-0.33
2017-01-06T09:12:55.804Z,-0.05
2017-01-06T09:14:01.010Z,0.3
2017-01-06T09:15:07.213Z,0.25
2017-01-06T09:16:11.456Z,0.33
2017-01-06T09:17:16.658Z,0.16
2017-01-06T09:18:22.827Z,-0.01
2017-01-06T09:19:28.019Z,-0.37
2017-01-06T09:20:33.216Z,-0.78
2017-01-06T09:21:37.469Z,-1.07
2017-01-06T09:22:42.668Z,-1.38
2017-01-06T09:23:48.892Z,-1.46
2017-01-06T09:24:54.013Z,-1.33
2017-01-06T09:25:57.270Z,-1.35
2017-01-06T09:27:02.513Z,-1.18
2017-01-06T09:28:08.646Z,-1.07
2017-01-06T09:29:14.809Z,-1.15
2017-01-06T09:30:19.030Z,-1.15
2017-01-06T09:31:23.255Z,-1.25
2017-01-06T09:32:27.591Z,-1.62
2017-01-06T09:33:32.787Z,-1.8
2017-01-06T09:34:37.695Z,-2.08
2017-01-06T09:35:43.861Z,-2.32
2017-01-06T09:36:49.065Z,-2.26
2017-01-06T09:37:54.279Z,-2.08
2017-01-06T09:38:59.437Z,-1.88
2017-01-06T09:40:05.615Z,-1.78
2017-01-06T09:41:10.912Z,-1.9
2017-01-06T09:42:16.110Z,-1.93
2017-01-06T09:43:19.426Z,-2.1
2017-01-06T09:44:22.662Z,-2.35
2017-01-06T09:45:26.894Z,-2.26
2017-01-06T09:46:31.111Z,-2.32
2017-01-06T09:47:36.308Z,-2.32
2017-01-06T09:48:41.481Z,-2.38
2017-01-06T09:49:46.642Z,-2.14
2017-01-06T09:50:51.841Z,-1.82
2017-01-06T09:51:58.005Z,-1.59
2017-01-06T09:53:04.187Z,-1.54
2017-01-06T09:54:10.349Z,-1.23
2017-01-06T09:55:16.537Z,-1.1
2017-01-06T09:56:21.716Z,-1.09
2017-01-06T09:57:27.874Z,-0.94
2017-01-06T09:58:34.042Z,-0.84
2017-01-06T09:59:40.223Z,-0.69
2017-01-06T10:00:46.441Z,-0.68
2017-01-06T10:01:50.675Z,-0.81
2017-01-06T10:02:55.889Z,-0.95
2017-01-06T10:04:00.149Z,-1.1
2017-01-06T10:05:03.443Z,-1.2
2017-01-06T10:06:09.606Z,-1.24
2017-01-06T10:07:13.813Z,-1.24
2017-01-06T10:08:18.982Z,-1.15
2017-01-06T10:09:25.142Z,-0.97
2017-01-06T10:10:31.310Z,-0.44
2017-01-06T10:11:37.475Z,0.09
2017-01-06T10:12:40.709Z,0.64
2017-01-06T10:13:44.938Z,1.16
2017-01-06T10:14:49.162Z,1.61
2017-01-06T10:15:55.327Z,2.31
2017-01-06T10:17:00.501Z,2.48
2017-01-06T10:18:03.817Z,2.71
2017-01-06T10:19:10.021Z,3.03
2017-01-06T10:20:16.185Z,2.77
2017-01-06T10:21:21.395Z,2.1
2017-01-06T10:22:25.602Z,1.73
2017-01-06T10:23:30.796Z,1.79
2017-01-06T10:24:36.968Z,2.04
2017-01-06T10:25:43.185Z,2.16
2017-01-06T10:26:49.355Z,2.46
2017-01-06T10:27:54.522Z,2.69
2017-01-06T10:29:00.694Z,2.58
2017-01-06T10:30:06.868Z,2.81
2017-01-06T10:31:12.113Z,2.88
2017-01-06T10:33:23.409Z,3.12
2017-01-06T10:34:28.618Z,3.24
2017-01-06T10:35:34.795Z,3.06
2017-01-06T10:36:38.131Z,3.07
2017-01-06T10:37:44.300Z,3.03
2017-01-06T10:38:48.541Z,2.87
2017-01-06T10:39:54.709Z,2.77
2017-01-06T10:40:59.875Z,2.82
2017-01-06T10:42:06.039Z,2.63
2017-01-06T10:43:11.240Z,2.53
2017-01-06T10:44:16.430Z,2.41
2017-01-06T10:45:20.630Z,2.13
2017-01-06T10:46:26.794Z,1.42
2017-01-06T10:47:31.969Z,0.89
2017-01-06T10:48:38.131Z,0.8
2017-01-06T10:49:43.337Z,0.94
2017-01-06T10:50:47.623Z,0.8
2017-01-06T10:51:52.824Z,0.67
2017-01-06T10:52:58.992Z,0.7
2017-01-06T10:54:05.162Z,0.8
2017-01-06T10:55:09.363Z,0.57
2017-01-06T10:56:13.596Z,0.75
2017-01-06T10:57:17.932Z,0.78
2017-01-06T10:58:23.281Z,0.75
2017-01-06T10:59:29.505Z,0.75
2017-01-06T11:00:34.701Z,0.9
2017-01-06T11:01:40.865Z,0.85
2017-01-06T11:02:45.098Z,0.86
2017-01-06T11:03:51.342Z,0.9
2017-01-06T11:04:57.511Z,0.9
2017-01-06T11:06:02.747Z,0.78
2017-01-06T11:07:06.990Z,0.7
2017-01-06T11:08:11.229Z,0.64
2017-01-06T11:09:17.398Z,0.57
2017-01-06T11:10:22.629Z,0.43
2017-01-06T11:11:26.853Z,0.27
2017-01-06T11:12:32.100Z,0.09
2017-01-06T11:13:36.329Z,-0.13
2017-01-06T11:14:42.544Z,-0.33
2017-01-06T11:15:46.769Z,-0.42
2017-01-06T11:16:52.939Z,-0.57
2017-01-06T11:17:58.116Z,-0.48
2017-01-06T11:19:04.290Z,-0.54
2017-01-06T11:20:10.460Z,-0.48
2017-01-06T11:21:16.690Z,-0.68
2017-01-06T11:22:19.958Z,-0.73
2017-01-06T11:23:24.206Z,-0.83
2017-01-06T11:24:28.523Z,-1
2017-01-06T11:25:34.690Z,-1.09
2017-01-06T11:26:38.891Z,-1.21
2017-01-06T11:27:43.181Z,-1.21
2017-01-06T11:28:47.343Z,-1.35
2017-01-06T11:29:53.507Z,-1.41
2017-01-06T11:30:57.733Z,-1.42
2017-01-06T11:32:02.927Z,-1.45
2017-01-06T11:33:09.143Z,-1.41
2017-01-06T11:34:14.310Z,-1.45
2017-01-06T11:35:19.503Z,-1.39
2017-01-06T11:36:24.707Z,-1.54
2017-01-06T11:37:30.863Z,-1.56
2017-01-06T11:38:35.091Z,-1.57
2017-01-06T11:39:40.315Z,-1.59
2017-01-06T11:40:44.521Z,-1.59
2017-01-06T11:41:48.388Z,-1.59
2017-01-06T11:42:52.634Z,-1.63
2017-01-06T11:43:56.857Z,-1.54
2017-01-06T11:45:03.032Z,-1.48
2017-01-06T11:46:07.263Z,-1.36
2017-01-06T11:47:13.422Z,-1.35
2017-01-06T11:48:18.622Z,-1.36
2017-01-06T11:49:23.824Z,-1.38
2017-01-06T11:50:28.056Z,-1.35
2017-01-06T11:51:32.294Z,-1.27
2017-01-06T11:52:37.552Z,-1.15
2017-01-06T11:53:42.752Z,-1.13
2017-01-06T11:54:48.924Z,-0.97
2017-01-06T11:55:54.096Z,-0.89
2017-01-06T11:56:58.322Z,-0.8
2017-01-06T11:58:03.514Z,-0.78
2017-01-06T11:59:08.715Z,-0.73
2017-01-06T12:00:14.871Z,-0.68
2017-01-06T12:01:20.088Z,-0.69
2017-01-06T12:02:26.262Z,-0.68
2017-01-06T12:03:31.559Z,-0.57
2017-01-06T12:04:36.755Z,-0.52
2017-01-06T12:05:41.945Z,-0.52
2017-01-06T12:06:46.172Z,-0.48
2017-01-06T12:07:52.337Z,-0.55
2017-01-06T12:08:58.500Z,-0.51
2017-01-06T12:10:04.657Z,-0.73
2017-01-06T12:11:10.870Z,-0.83
2017-01-06T12:12:16.079Z,-0.89
2017-01-06T12:13:20.618Z,-0.94
2017-01-06T12:14:26.776Z,-0.97
2017-01-06T12:15:32.955Z,-1.05
2017-01-06T12:16:38.153Z,-1.15
2017-01-06T12:17:43.346Z,-1.12
2017-01-06T12:18:47.595Z,-1.09
2017-01-06T12:19:53.735Z,-1.25
2017-01-06T12:20:56.996Z,-1.3
2017-01-06T12:22:03.162Z,-1.33
2017-01-06T12:23:08.371Z,-1.35
2017-01-06T12:24:13.563Z,-1.39
2017-01-06T12:25:19.723Z,-1.43
2017-01-06T12:26:23.937Z,-1.51
2017-01-06T12:27:29.148Z,-1.7
2017-01-06T12:28:35.393Z,-1.75
2017-01-06T12:29:41.554Z,-1.88
2017-01-06T12:30:44.813Z,-2.05
2017-01-06T12:31:51.018Z,-2
2017-01-06T12:32:55.204Z,-2.08
2017-01-06T12:34:01.364Z,-2.11
2017-01-06T12:35:06.559Z,-2.18
2017-01-06T12:36:11.775Z,-2.26
2017-01-06T12:37:16.972Z,-2.33
2017-01-06T12:38:21.189Z,-2.32
2017-01-06T12:39:25.417Z,-2.29
2017-01-06T12:40:30.610Z,-2.33
2017-01-06T12:41:35.806Z,-2.36
2017-01-06T12:42:41.001Z,-2.29
2017-01-06T12:43:45.255Z,-2.33
2017-01-06T12:44:48.494Z,-2.33
2017-01-06T12:45:53.686Z,-2.35
2017-01-06T12:46:58.961Z,-2.36
2017-01-06T12:48:05.119Z,-2.38
2017-01-06T12:49:10.309Z,-2.38
2017-01-06T12:50:13.595Z,-2.35
2017-01-06T12:51:19.718Z,-2.33
2017-01-06T12:52:25.879Z,-2.32
2017-01-06T12:53:32.053Z,-2.35
2017-01-06T12:54:38.240Z,-2.33
2017-01-06T12:55:44.384Z,-2.36
2017-01-06T12:56:50.542Z,-2.32
2017-01-06T12:57:56.712Z,-2.33
2017-01-06T12:59:00.991Z,-2.36
2017-01-06T13:00:05.225Z,-2.4
2017-01-06T13:01:11.410Z,-2.32
2017-01-06T13:02:16.574Z,-2.4
2017-01-06T13:03:21.907Z,-2.38
2017-01-06T13:04:27.120Z,-2.36
2017-01-06T13:05:32.378Z,-2.35
2017-01-06T13:06:38.548Z,-2.38
2017-01-06T13:07:42.788Z,-2.32
2017-01-06T13:08:47.985Z,-2.33
2017-01-06T13:09:51.205Z,-2.24
2017-01-06T13:10:55.450Z,-2.28
2017-01-06T13:12:01.597Z,-2.24
2017-01-06T13:13:07.763Z,-2.24
2017-01-06T13:14:11.948Z,-2.17
2017-01-06T13:15:16.211Z,-2.32
2017-01-06T13:16:22.419Z,-2.28
2017-01-06T13:17:28.540Z,-2.28
2017-01-06T13:18:32.739Z,-2.17
2017-01-06T13:19:36.956Z,-2.26
2017-01-06T13:20:43.118Z,-2.28
2017-01-06T13:21:49.279Z,-2.24
2017-01-06T13:22:54.534Z,-2.21
2017-01-06T13:24:00.703Z,-2.13
2017-01-06T13:25:05.903Z,-2.1
2017-01-06T13:26:11.106Z,-2.06
2017-01-06T13:27:16.309Z,-2.06
2017-01-06T13:28:21.509Z,-2.1
2017-01-06T13:29:27.729Z,-2.08
2017-01-06T13:30:33.846Z,-2.11
2017-01-06T13:31:38.067Z,-2.11
2017-01-06T13:32:43.394Z,-2.11
2017-01-06T13:33:48.556Z,-2.02
2017-01-06T13:34:53.777Z,-2.1
2017-01-06T13:35:59.951Z,-2.14
2017-01-06T13:37:05.167Z,-2.11
2017-01-06T13:38:09.416Z,-2.11
2017-01-06T13:39:13.644Z,-2.06
2017-01-06T13:40:18.858Z,-2.08
2017-01-06T13:41:24.050Z,-2.05
2017-01-06T13:42:28.252Z,-2.08
2017-01-06T13:43:33.439Z,-2.14
2017-01-06T13:44:36.670Z,-2.18
2017-01-06T13:45:39.979Z,-2.23
2017-01-06T13:46:45.174Z,-2.14
2017-01-06T13:47:51.341Z,-2.18
2017-01-06T13:48:57.523Z,-2.14
2017-01-06T13:50:02.713Z,-2.23
2017-01-06T13:51:06.938Z,-2.18
2017-01-06T13:52:10.224Z,-2.23
2017-01-06T13:53:16.422Z,-2.24
2017-01-06T13:54:22.555Z,-2.21
2017-01-06T13:55:27.774Z,-2.21
2017-01-06T13:56:32.005Z,-2.21
2017-01-06T13:57:36.248Z,-2.2
2017-01-06T13:58:41.442Z,-2.2
2017-01-06T13:59:44.736Z,-2.26
2017-01-06T14:00:49.890Z,-2.2
2017-01-06T14:01:53.132Z,-2.18
2017-01-06T14:02:58.321Z,-2.2
2017-01-06T14:04:02.677Z,-2.17
2017-01-06T14:05:07.857Z,-2.23
2017-01-06T14:06:12.073Z,-2.18
2017-01-06T14:07:17.356Z,-2.18
2017-01-06T14:08:23.626Z,-2.16
2017-01-06T14:09:27.857Z,-2.23